Friday, September 19, 2014
07:55 UTC
  |  Log In   |  Register Free
Airport Search:

Independence Municipal Airport
(KIDP)

FAA data valid effective September 18, 2014 - November 13, 2014 (unless otherwise noted).

 
 
 
 
 
 
 
 
 
 
 
 
 
 

Current Aviation Weather for Independence Municipal Airport (KIDP)

The most recent METAR observation for KIDP was updated at: 0711
METAR Summary (Translated METAR)
KIDP
190655Z AUTO 12003KT 10SM CLR 18/16 A2999 RMK AO2
KCFV
190652Z AUTO 10005KT 10SM CLR 19/17 A2999 RMK AO2 SLP150 T01890172
(10.6 nm SE from KIDP)
KPPF
190652Z AUTO 00000KT 10SM CLR 19/17 A3001 RMK AO2 SLP155 T01890172
(16.6 nm NE from KIDP)
TAF
No TAF information found within 50 nm of KIDP
  Airport Weather Conditions for KIDP

 Current Weather at IDP
64° F
Fair
East winds at 5.8 mph
IDP NOAA Radar

Pressure: 29.99 in
Humidity: 94%
Wind: East at 5.8 MPH (5 KT)
Dew Point: 62.6°F
Visibility: 10.00 mi


Airport Weather Forecast for KIDP

Translated METAR and TAF for KIDP
Translated METAR for KIDP (0749 UTC 19 September 2014)
found at http://aviationweather.gov/adds/metars/
 
METAR text: KIDP 190735Z AUTO 11003KT 7SM CLR 17/16 A2999 RMK AO2
Conditions at: KIDP (INDEPENDENCE , KS, US) observed 0735 UTC 19 September 2014
Temperature: 17.0°C (63°F)
Dewpoint: 16.0°C (61°F) [RH = 94%]
Pressure (altimeter): 29.99 inches Hg (1015.7 mb)
Winds: from the ESE (110 degrees) at 3 MPH (3 knots; 1.6 m/s)
Visibility: 7 miles (11 km)
Ceiling: at least 12,000 feet AGL
Clouds: sky clear below 12,000 feet AGL
Weather: automated observation with no human augmentation;
there may or may not be significant weather present at this time
Translated TAF for KIDP

There is no translated TAF available for this airport

Find All Airport Services Find A Hotel Find A Rental Car Find A Golf Course Find A Restaurant $100 Hamburger



FBO's on the Field
FBO Company Facility Photos Services Transportation Aviation Fuel Prices: Prices include tax
Catering Weather Repair Courtesy Rental Type 100LL JetA JetA+ MOGAS 8087
 
City of Independence

This FBO has not yet been rated
FS:Phillips66
Last Updated: Sep-02
Login to update fuel prices
SS:
Contact City of IndependenceMore FBO Information
 
Add another FBO Facility Photos Catering Weather Repair Courtesy Rental Type 100LL JetA JetA+ MOGAS 8087
Services Transportation Aviation Fuel Prices: Prices include tax


model-print
model-print
model-print
model-print